Terminal Aerodrome Forecast
Issued by NWS

Home | Current Version | Previous Version | Text Only | Print | Product List | Glossary On
Versions: 1 2 3 4 5 6 7 8 9 10 11 12 13 14 15 16 17 18 19 20
000
FTUS46 KOTX 281122
TAFCOE
TAF
KCOE 281122Z 2812/2912 17008KT P6SM SCT045 BKN080 OVC200
     FM281600 18007KT P6SM BKN050 BKN100 OVC200
     FM282200 20012G17KT P6SM -SHRA BKN040 OVC120
     FM290200 19006KT P6SM BKN040 BKN100
     FM290800 17005KT P6SM -RA BKN020 OVC060=

USA.gov is the U.S. government's official web portal to all federal, state and local government web resources and services.